KBNO/BNO METAR and TAF weather

Enter ICAO airport designator
Station Type Date Time Source
KBNO METAR 2019/10/23 12:53 UTC NOAA

KBNO 231253Z AUTO 00000KT 10SM CLR M04/M07 A3035 RMK AO2 SLP285 T10391072


Station Type Date Time Source
KBNO Decoded METAR 2019/10/23 12:53 UTC NOAA

BURNS MUNICIPAL AIRPORT, OR, United States (KBNO) 43-36N 118-57W 1264M
Oct 23, 2019 - 08:53 AM EDT / 2019.10.23 1253 UTC
Wind: Calm:0
Visibility: 10 mile(s):0
Sky conditions: clear
Temperature: 25.0 F (-3.9 C)
Dew Point: 19.0 F (-7.2 C)
Relative Humidity: 77%
Pressure (altimeter): 30.35 in. Hg (1027 hPa)
ob: KBNO 231253Z AUTO 00000KT 10SM CLR M04/M07 A3035 RMK AO2 SLP285 T10391072
cycle: 13

Station Type Date Time Source
KBNO TAF 2019/10/23 12:24 UTC NOAA

TAF KBNO 231122Z 2312/2412 VRB03KT P6SM SCT150
FM231900 31008KT P6SM SKC
FM240300 VRB03KT P6SM SKC

Example: see airport list